Terminal Aerodrome Forecast
Issued by NWS

Home | Current Version | Previous Version | Text Only | Print | Product List | Glossary On
Versions: 1 2 3 4 5 6 7 8 9 10 11 12 13 14 15 16 17 18 19 20
089
FTUS44 KCRP 301120
TAFLRD
TAF
KLRD 301120Z 3012/3112 14008KT P6SM SCT015 SCT250
     FM301600 16012KT P6SM SCT030 SCT250
     FM301900 15014G22KT P6SM SCT060
     FM310400 14008KT P6SM FEW030=

USA.gov is the U.S. government's official web portal to all federal, state and local government web resources and services.